00:45
Airports
History
Links
Donate
Help keep this website running!
PayPal
Bitcoin
This page is community maintained. The information is intended for PC simulator navigation or reference.
Always use approved charts for navigation.
EDVN
Northeim
Northeim (EDVN)
Northeim, Niedersachsen, Germany (37154)
4
Lat/Lng:51° 42' 24" N / 10° 2' 22.2" E
51.706666 / 10.0395
Elevation:530'ft / 162mMSL
ID / ICAO:EDVN
Runways:1
Longest:29-11
Grass 692m / 2,270ft
Nearby Weather19:50 GMT 2017-09-24
Nearby weather at EDVK, Kassel Calden located 35.2 nautical miles from EDVN
Altimeter: 30.21
Visibility: 6.2 statute miles
Wind: 3 knots (from 350°)
Temp: 13°c / 55°f
Humidity: 100.0%

METAR: EDVK 241950Z 35003KT 9999 BKN009 13/13 Q1023

(Powered by phpweather)
Nearby VORs <50NM
Nearby NDBs
Runway 29 / 11
Dimensions:692 x 27.4m 2270' x 90'ft
Surface:Grass
Runway 29 [A]Runway 11 [B]
Heading:292°TH 112°TH
Lat:
Lng:
51° 42' 19.84"N
10° 2' 38.8"E
51° 42' 28.15"N
10° 2' 5.6"E
User Notes and Comments
51° 42' 24" N / 10° 2' 22.2" E
Distance To
Airport ID:
Nearby Airports
4 Bad Gandersheim 10.3 NM
EDVA N 356°
(C) Hoexter-Holzminden 29.1 NM
EDVI WNW 283°
(C) Hildesheim 32.9 NM
EDVM N 353°
(C) Salzgitter Druette 35.0 NM
EDVS NNE 28°
(C) Kassel Calden 35.2 NM
EDVK ( WX ) SW 234°
(U) Bad Pyrmont 36.7 NM
EDVW WNW 299°
(U) OBERMEHLER SCHLOTHEIM 39.7 NM
EDCO SE 139°
VFR Chart
Flight Planning at SkyVector.com